Time,TemperatureF,DewpointF,PressureIn,WindDirection,WindDirectionDegrees,WindSpeedMPH,WindSpeedGustMPH,Humidity,HourlyPrecipIn,Conditions,Clouds,dailyrainin,SoftwareType,DateUTC
2013-01-23 00:04:00,30.2,27.1,29.02,NE,45,0.0,0.0,88,0.00,,,0.00,WUHU216HW,2013-01-23 09:04:00,
2013-01-23 00:09:00,30.0,26.9,29.02,NE,45,0.0,0.0,88,0.00,,,0.00,WUHU216HW,2013-01-23 09:09:00,
2013-01-23 00:14:00,30.0,26.9,29.02,NE,45,0.0,0.0,88,0.00,,,0.00,WUHU216HW,2013-01-23 09:14:00,
2013-01-23 00:19:00,30.0,26.9,29.02,ENE,68,0.0,0.0,88,0.00,,,0.00,WUHU216HW,2013-01-23 09:19:00,
2013-01-23 00:24:00,30.0,26.9,29.02,ENE,68,0.0,0.0,88,0.00,,,0.00,WUHU216HW,2013-01-23 09:24:00,
2013-01-23 00:29:00,29.8,26.7,29.02,NE,45,0.0,0.0,88,0.00,,,0.00,WUHU216HW,2013-01-23 09:29:00,
2013-01-23 00:34:00,29.8,26.7,29.01,NE,45,0.0,0.0,88,0.00,,,0.00,WUHU216HW,2013-01-23 09:34:00,
2013-01-23 00:39:00,29.6,26.5,29.01,NE,45,0.0,0.0,88,0.00,,,0.00,WUHU216HW,2013-01-23 09:39:00,
2013-01-23 00:44:00,29.4,26.3,29.01,NE,45,0.0,0.0,88,0.00,,,0.00,WUHU216HW,2013-01-23 09:44:00,
2013-01-23 00:49:00,29.4,26.3,29.01,NE,45,0.0,0.0,88,0.00,,,0.00,WUHU216HW,2013-01-23 09:49:00,
2013-01-23 00:54:00,29.3,26.2,29.01,NE,45,0.0,0.0,88,0.00,,,0.00,WUHU216HW,2013-01-23 09:54:00,
2013-01-23 00:59:00,29.1,26.0,29.02,NE,45,0.0,0.0,88,0.00,,,0.00,WUHU216HW,2013-01-23 09:59:00,
2013-01-23 01:04:00,28.9,26.0,29.02,NE,45,0.0,0.0,88,0.00,,,0.00,WUHU216HW,2013-01-23 10:04:00,
2013-01-23 01:09:00,28.7,25.6,29.01,NE,45,0.0,0.0,88,0.00,,,0.00,WUHU216HW,2013-01-23 10:09:00,
2013-01-23 01:14:00,28.7,25.6,29.01,NE,45,0.0,0.0,88,0.00,,,0.00,WUHU216HW,2013-01-23 10:14:00,
2013-01-23 01:19:00,28.7,25.6,29.01,NE,45,0.0,0.0,88,0.00,,,0.00,WUHU216HW,2013-01-23 10:19:00,
2013-01-23 01:24:00,28.7,25.6,29.01,NE,45,0.0,0.0,88,0.00,,,0.00,WUHU216HW,2013-01-23 10:24:00,
2013-01-23 01:29:00,28.7,25.6,29.01,NE,45,0.0,0.0,88,0.00,,,0.00,WUHU216HW,2013-01-23 10:29:00,
2013-01-23 01:34:00,28.5,25.4,29.01,NE,45,0.0,0.0,88,0.00,,,0.00,WUHU216HW,2013-01-23 10:34:00,
2013-01-23 01:39:00,28.5,25.4,29.01,NE,45,0.0,0.0,88,0.00,,,0.00,WUHU216HW,2013-01-23 10:39:00,
2013-01-23 01:44:00,28.5,25.4,29.01,NE,45,0.0,0.0,88,0.00,,,0.00,WUHU216HW,2013-01-23 10:44:00,
2013-01-23 01:49:00,28.4,25.3,29.01,NE,45,0.0,0.0,88,0.00,,,0.00,WUHU216HW,2013-01-23 10:49:00,
2013-01-23 01:54:00,28.2,25.1,29.00,NE,45,0.0,0.0,88,0.00,,,0.00,WUHU216HW,2013-01-23 10:54:00,
2013-01-23 01:59:00,28.2,25.1,29.00,NE,45,0.0,0.0,88,0.00,,,0.00,WUHU216HW,2013-01-23 10:59:00,
2013-01-23 02:04:00,28.2,24.9,29.00,NE,45,0.0,0.0,88,0.00,,,0.00,WUHU216HW,2013-01-23 11:04:00,
2013-01-23 02:10:00,28.0,24.9,29.00,NE,45,0.0,0.0,88,0.00,,,0.00,WUHU216HW,2013-01-23 11:10:00,
2013-01-23 02:15:00,27.6,24.5,29.00,ENE,68,0.0,0.0,88,0.00,,,0.00,WUHU216HW,2013-01-23 11:15:00,
2013-01-23 02:20:00,27.6,24.8,29.00,NE,45,0.0,0.0,89,0.00,,,0.00,WUHU216HW,2013-01-23 11:20:00,
2013-01-23 02:25:00,27.6,24.8,29.00,NE,45,0.0,0.0,89,0.00,,,0.00,WUHU216HW,2013-01-23 11:25:00,
2013-01-23 02:30:00,27.6,24.8,28.99,NE,45,0.0,0.0,89,0.00,,,0.00,WUHU216HW,2013-01-23 11:30:00,
2013-01-23 02:35:00,27.6,24.8,28.99,NE,45,0.0,0.0,89,0.00,,,0.00,WUHU216HW,2013-01-23 11:35:00,
2013-01-23 02:40:00,27.6,24.8,28.99,NE,45,0.0,0.0,89,0.00,,,0.00,WUHU216HW,2013-01-23 11:40:00,
2013-01-23 02:45:00,27.6,24.8,28.99,NE,45,0.0,0.0,89,0.00,,,0.00,WUHU216HW,2013-01-23 11:45:00,
2013-01-23 02:50:00,27.5,24.6,28.98,NE,45,0.0,0.0,89,0.00,,,0.00,WUHU216HW,2013-01-23 11:50:00,
2013-01-23 02:55:00,27.5,24.6,28.99,NE,45,0.0,0.0,89,0.00,,,0.00,WUHU216HW,2013-01-23 11:55:00,
2013-01-23 03:00:00,27.3,24.2,28.99,NE,45,0.0,0.0,88,0.00,,,0.00,WUHU216HW,2013-01-23 12:00:00,
2013-01-23 03:05:00,27.3,24.2,28.99,NE,45,0.0,0.0,88,0.00,,,0.00,WUHU216HW,2013-01-23 12:05:00,
2013-01-23 03:10:00,27.1,24.0,28.99,NE,45,0.0,0.0,88,0.00,,,0.00,WUHU216HW,2013-01-23 12:10:00,
2013-01-23 03:15:00,27.1,24.0,28.99,ENE,68,0.0,0.0,88,0.00,,,0.00,WUHU216HW,2013-01-23 12:15:00,
2013-01-23 03:20:00,27.1,24.3,28.99,ENE,68,0.0,0.0,89,0.00,,,0.00,WUHU216HW,2013-01-23 12:20:00,
2013-01-23 03:25:00,27.1,24.3,28.98,ENE,68,0.0,0.0,89,0.00,,,0.00,WUHU216HW,2013-01-23 12:25:00,
2013-01-23 03:30:00,26.9,24.1,28.98,ENE,68,0.0,0.0,89,0.00,,,0.00,WUHU216HW,2013-01-23 12:30:00,
2013-01-23 03:35:00,26.9,24.1,28.98,ENE,68,0.0,0.0,89,0.00,,,0.00,WUHU216HW,2013-01-23 12:35:00,
2013-01-23 03:40:00,26.9,24.1,28.98,ENE,68,0.0,0.0,89,0.00,,,0.00,WUHU216HW,2013-01-23 12:40:00,
2013-01-23 03:45:00,26.9,24.1,28.98,ENE,68,0.0,0.0,89,0.00,,,0.00,WUHU216HW,2013-01-23 12:45:00,
2013-01-23 03:50:00,26.9,24.1,28.98,ENE,68,0.0,0.0,89,0.00,,,0.00,WUHU216HW,2013-01-23 12:50:00,
2013-01-23 03:55:00,26.9,24.1,28.97,ENE,68,0.0,0.0,89,0.00,,,0.00,WUHU216HW,2013-01-23 12:55:00,
2013-01-23 04:00:00,26.9,24.1,28.98,ENE,68,0.0,0.0,89,0.00,,,0.00,WUHU216HW,2013-01-23 13:00:00,
2013-01-23 04:05:00,26.9,24.1,28.98,NE,45,0.8,0.8,89,0.00,,,0.00,WUHU216HW,2013-01-23 13:05:00,
2013-01-23 04:10:00,26.9,24.1,28.97,NE,45,0.0,0.8,89,0.00,,,0.00,WUHU216HW,2013-01-23 13:10:00,
2013-01-23 04:15:00,26.9,24.1,28.98,NE,45,0.0,0.8,89,0.00,,,0.00,WUHU216HW,2013-01-23 13:15:00,
2013-01-23 04:20:00,26.9,24.1,28.97,NNE,23,0.0,0.0,89,0.00,,,0.00,WUHU216HW,2013-01-23 13:20:00,
2013-01-23 04:25:00,26.9,24.1,28.97,NE,45,1.1,1.1,89,0.00,,,0.00,WUHU216HW,2013-01-23 13:25:00,
2013-01-23 04:30:00,26.9,24.1,28.96,NNE,23,1.3,3.3,89,0.00,,,0.00,WUHU216HW,2013-01-23 13:30:00,
2013-01-23 04:35:00,26.9,24.1,28.96,NNE,23,1.3,3.3,89,0.00,,,0.00,WUHU216HW,2013-01-23 13:35:00,
2013-01-23 04:40:00,26.9,24.1,28.96,NNE,23,2.4,3.3,89,0.00,,,0.00,WUHU216HW,2013-01-23 13:40:00,
2013-01-23 04:45:00,26.9,24.1,28.95,NNE,23,0.0,2.4,89,0.00,,,0.00,WUHU216HW,2013-01-23 13:45:00,
2013-01-23 04:50:00,26.9,24.1,28.96,NNE,23,0.0,0.0,89,0.00,,,0.00,WUHU216HW,2013-01-23 13:50:00,
2013-01-23 04:55:00,26.9,24.1,28.96,NE,45,0.0,0.0,89,0.00,,,0.00,WUHU216HW,2013-01-23 13:55:00,
2013-01-23 05:00:00,26.7,23.9,28.96,NE,45,0.0,0.0,89,0.00,,,0.00,WUHU216HW,2013-01-23 14:00:00,
2013-01-23 05:05:00,26.7,23.9,28.96,NE,45,0.0,0.0,89,0.00,,,0.00,WUHU216HW,2013-01-23 14:05:00,
2013-01-23 05:10:00,26.6,23.7,28.96,NNE,23,0.0,0.0,89,0.00,,,0.00,WUHU216HW,2013-01-23 14:10:00,
2013-01-23 05:15:00,26.4,23.6,28.96,NNE,23,0.0,0.0,89,0.00,,,0.00,WUHU216HW,2013-01-23 14:15:00,
2013-01-23 05:20:00,26.4,23.6,28.96,NNE,23,0.0,0.0,89,0.00,,,0.00,WUHU216HW,2013-01-23 14:20:00,
2013-01-23 05:25:00,26.4,23.6,28.95,NNE,23,0.0,0.0,89,0.00,,,0.00,WUHU216HW,2013-01-23 14:25:00,
2013-01-23 05:30:00,26.2,23.4,28.95,NNE,23,0.0,0.0,89,0.00,,,0.00,WUHU216HW,2013-01-23 14:30:00,
2013-01-23 05:35:00,26.2,23.4,28.95,NNE,23,0.0,0.0,89,0.00,,,0.00,WUHU216HW,2013-01-23 14:35:00,
2013-01-23 05:40:00,26.2,23.4,28.94,NNE,23,0.0,0.0,89,0.00,,,0.00,WUHU216HW,2013-01-23 14:40:00,
2013-01-23 05:45:00,26.0,23.2,28.95,NW,315,0.0,0.0,89,0.00,,,0.00,WUHU216HW,2013-01-23 14:45:00,
2013-01-23 05:50:00,25.8,23.0,28.94,North,0,0.0,0.8,89,0.00,,,0.00,WUHU216HW,2013-01-23 14:50:00,
2013-01-23 05:55:00,26.0,23.2,28.95,NNE,23,0.0,0.8,89,0.00,,,0.00,WUHU216HW,2013-01-23 14:55:00,
2013-01-23 06:00:00,25.7,22.8,28.95,NNE,23,0.0,0.0,89,0.00,,,0.00,WUHU216HW,2013-01-23 15:00:00,
2013-01-23 06:05:00,25.5,22.7,28.94,NNE,23,0.0,0.0,89,0.00,,,0.00,WUHU216HW,2013-01-23 15:05:00,
2013-01-23 06:10:00,25.5,22.7,28.94,NNE,23,0.0,0.0,89,0.00,,,0.00,WUHU216HW,2013-01-23 15:10:00,
2013-01-23 06:15:00,25.3,22.5,28.94,NNE,23,0.0,0.0,89,0.00,,,0.00,WUHU216HW,2013-01-23 15:15:00,
2013-01-23 06:20:00,25.1,22.3,28.94,NNE,23,0.0,0.0,89,0.00,,,0.00,WUHU216HW,2013-01-23 15:20:00,
2013-01-23 06:25:00,24.9,22.1,28.94,NNE,23,0.0,0.0,89,0.00,,,0.00,WUHU216HW,2013-01-23 15:25:00,
2013-01-23 06:30:00,24.6,21.8,28.94,NNE,23,0.0,0.0,89,0.00,,,0.00,WUHU216HW,2013-01-23 15:30:00,
2013-01-23 06:35:00,24.6,21.8,28.94,NNE,23,0.0,0.0,89,0.00,,,0.00,WUHU216HW,2013-01-23 15:35:00,
2013-01-23 06:40:00,24.6,21.8,28.93,NNE,23,0.0,0.0,89,0.00,,,0.00,WUHU216HW,2013-01-23 15:40:00,
2013-01-23 06:45:00,24.4,21.6,28.93,NNE,23,0.0,0.0,89,0.00,,,0.00,WUHU216HW,2013-01-23 15:45:00,
2013-01-23 06:50:00,24.4,21.6,28.93,NNE,23,0.0,0.0,89,0.00,,,0.00,WUHU216HW,2013-01-23 15:50:00,
2013-01-23 06:55:00,24.2,21.4,28.93,NE,45,0.0,0.0,89,0.00,,,0.00,WUHU216HW,2013-01-23 15:55:00,
2013-01-23 07:00:00,24.0,21.2,28.93,NE,45,0.0,0.0,89,0.00,,,0.00,WUHU216HW,2013-01-23 16:00:00,
2013-01-23 07:05:00,23.9,21.1,28.93,NE,45,0.0,0.0,89,0.00,,,0.00,WUHU216HW,2013-01-23 16:05:00,
2013-01-23 07:10:00,23.7,20.9,28.93,NE,45,0.0,0.0,89,0.00,,,0.00,WUHU216HW,2013-01-23 16:10:00,
2013-01-23 07:15:00,23.9,21.1,28.93,NE,45,0.0,0.0,89,0.00,,,0.00,WUHU216HW,2013-01-23 16:15:00,
2013-01-23 07:20:00,23.9,21.1,28.93,NE,45,0.0,0.0,89,0.00,,,0.00,WUHU216HW,2013-01-23 16:20:00,
2013-01-23 07:25:00,23.9,21.1,28.93,NE,45,0.0,0.0,89,0.00,,,0.00,WUHU216HW,2013-01-23 16:25:00,
2013-01-23 07:30:00,23.7,20.9,28.93,NE,45,0.0,0.0,89,0.00,,,0.00,WUHU216HW,2013-01-23 16:30:00,
2013-01-23 07:35:00,23.7,20.9,28.93,NE,45,0.0,0.0,89,0.00,,,0.00,WUHU216HW,2013-01-23 16:35:00,
2013-01-23 07:40:00,23.5,20.7,28.93,NE,45,0.0,0.0,89,0.00,,,0.00,WUHU216HW,2013-01-23 16:40:00,
2013-01-23 07:45:00,23.3,20.5,28.93,ENE,68,0.0,0.0,89,0.00,,,0.00,WUHU216HW,2013-01-23 16:45:00,
2013-01-23 07:50:00,23.1,20.3,28.93,ENE,68,0.0,0.0,89,0.00,,,0.00,WUHU216HW,2013-01-23 16:50:00,
2013-01-23 07:55:00,23.1,20.3,28.93,ENE,68,0.0,0.0,89,0.00,,,0.00,WUHU216HW,2013-01-23 16:55:00,
2013-01-23 08:00:00,23.1,20.3,28.93,NE,45,0.0,0.0,89,0.00,,,0.00,WUHU216HW,2013-01-23 17:00:00,
2013-01-23 08:05:00,23.1,20.3,28.93,NE,45,0.0,0.0,89,0.00,,,0.00,WUHU216HW,2013-01-23 17:05:00,
2013-01-23 08:10:00,23.1,20.3,28.92,NE,45,0.0,0.0,89,0.00,,,0.00,WUHU216HW,2013-01-23 17:10:00,
2013-01-23 08:16:00,23.1,20.3,28.92,NE,45,0.0,0.0,89,0.00,,,0.00,WUHU216HW,2013-01-23 17:16:00,
2013-01-23 08:21:00,23.1,20.3,28.92,NE,45,0.0,0.0,89,0.00,,,0.00,WUHU216HW,2013-01-23 17:21:00,
2013-01-23 08:26:00,23.1,20.3,28.93,NE,45,0.0,0.0,89,0.00,,,0.00,WUHU216HW,2013-01-23 17:26:00,
2013-01-23 08:31:00,23.1,20.3,28.93,ENE,68,0.0,0.0,89,0.00,,,0.00,WUHU216HW,2013-01-23 17:31:00,
2013-01-23 08:36:00,23.1,20.3,28.93,ENE,68,0.0,0.0,89,0.00,,,0.00,WUHU216HW,2013-01-23 17:36:00,
2013-01-23 08:41:00,23.1,20.3,28.93,ENE,68,0.0,0.0,89,0.00,,,0.00,WUHU216HW,2013-01-23 17:41:00,
2013-01-23 08:46:00,23.0,20.2,28.93,ENE,68,0.0,0.0,89,0.00,,,0.00,WUHU216HW,2013-01-23 17:46:00,
2013-01-23 08:51:00,23.1,20.3,28.93,ENE,68,0.0,0.0,89,0.00,,,0.00,WUHU216HW,2013-01-23 17:51:00,
2013-01-23 08:56:00,23.1,20.3,28.93,ENE,68,0.0,0.0,89,0.00,,,0.00,WUHU216HW,2013-01-23 17:56:00,
2013-01-23 09:01:00,23.1,20.3,28.93,ENE,68,0.0,0.0,89,0.00,,,0.00,WUHU216HW,2013-01-23 18:01:00,
2013-01-23 09:06:00,23.1,20.3,28.92,ENE,68,0.0,0.0,89,0.00,,,0.00,WUHU216HW,2013-01-23 18:06:00,
2013-01-23 09:11:00,23.1,20.3,28.93,ENE,68,0.0,0.0,89,0.00,,,0.00,WUHU216HW,2013-01-23 18:11:00,
2013-01-23 09:16:00,23.1,20.3,28.93,ENE,68,0.0,0.0,89,0.00,,,0.00,WUHU216HW,2013-01-23 18:16:00,
2013-01-23 09:21:00,23.1,20.3,28.93,ENE,68,0.0,0.0,89,0.00,,,0.00,WUHU216HW,2013-01-23 18:21:00,
2013-01-23 09:26:00,23.1,20.3,28.93,ENE,68,0.0,0.0,89,0.00,,,0.00,WUHU216HW,2013-01-23 18:26:00,
2013-01-23 09:31:00,23.1,20.6,28.93,ENE,68,0.0,0.0,90,0.00,,,0.00,WUHU216HW,2013-01-23 18:31:00,
2013-01-23 09:36:00,23.1,20.6,28.92,ENE,68,0.0,0.0,90,0.00,,,0.00,WUHU216HW,2013-01-23 18:36:00,
2013-01-23 09:41:00,23.3,20.8,28.92,ENE,68,0.0,0.0,90,0.00,,,0.00,WUHU216HW,2013-01-23 18:41:00,
2013-01-23 09:46:00,23.3,20.8,28.92,ENE,68,0.0,0.0,90,0.00,,,0.00,WUHU216HW,2013-01-23 18:46:00,
2013-01-23 09:51:00,23.5,21.0,28.92,ENE,68,0.0,0.0,90,0.00,,,0.00,WUHU216HW,2013-01-23 18:51:00,
2013-01-23 09:56:00,23.5,21.0,28.92,ENE,68,0.0,0.0,90,0.00,,,0.00,WUHU216HW,2013-01-23 18:56:00,
2013-01-23 10:01:00,23.5,21.0,28.92,ENE,68,0.0,0.0,90,0.00,,,0.00,WUHU216HW,2013-01-23 19:01:00,
2013-01-23 10:06:00,23.7,21.2,28.92,ENE,68,0.0,0.0,90,0.00,,,0.00,WUHU216HW,2013-01-23 19:06:00,
2013-01-23 10:11:00,23.9,21.3,28.92,ENE,68,0.0,0.0,90,0.00,,,0.00,WUHU216HW,2013-01-23 19:11:00,
2013-01-23 10:16:00,24.0,21.5,28.92,ENE,68,0.0,0.0,90,0.00,,,0.00,WUHU216HW,2013-01-23 19:16:00,
2013-01-23 10:21:00,24.0,21.5,28.93,ENE,68,0.0,0.0,90,0.00,,,0.00,WUHU216HW,2013-01-23 19:21:00,
2013-01-23 10:26:00,24.4,21.9,28.93,ENE,68,0.0,0.0,90,0.00,,,0.00,WUHU216HW,2013-01-23 19:26:00,
2013-01-23 10:31:00,24.4,21.9,28.93,ENE,68,0.0,0.0,90,0.00,,,0.00,WUHU216HW,2013-01-23 19:31:00,
2013-01-23 10:36:00,24.4,21.9,28.93,ENE,68,0.0,0.0,90,0.00,,,0.00,WUHU216HW,2013-01-23 19:36:00,
2013-01-23 10:41:00,24.6,22.1,28.93,ENE,68,0.0,0.0,90,0.00,,,0.00,WUHU216HW,2013-01-23 19:41:00,
2013-01-23 10:46:00,24.6,22.1,28.93,ENE,68,0.0,0.0,90,0.00,,,0.00,WUHU216HW,2013-01-23 19:46:00,
2013-01-23 10:51:00,24.9,22.4,28.92,ENE,68,0.0,0.0,90,0.00,,,0.00,WUHU216HW,2013-01-23 19:51:00,
2013-01-23 10:56:00,24.9,22.4,28.93,ENE,68,0.0,0.0,90,0.00,,,0.00,WUHU216HW,2013-01-23 19:56:00,
2013-01-23 11:01:00,24.9,22.4,28.92,ENE,68,0.0,0.0,90,0.00,,,0.00,WUHU216HW,2013-01-23 20:01:00,
2013-01-23 11:06:00,24.9,22.4,28.92,ENE,68,0.0,0.0,90,0.00,,,0.00,WUHU216HW,2013-01-23 20:06:00,
2013-01-23 11:11:00,25.1,22.6,28.92,ENE,68,0.0,0.0,90,0.00,,,0.00,WUHU216HW,2013-01-23 20:11:00,
2013-01-23 11:16:00,25.3,22.8,28.92,ENE,68,0.0,0.0,90,0.00,,,0.00,WUHU216HW,2013-01-23 20:16:00,
2013-01-23 11:21:00,25.5,23.0,28.92,ENE,68,0.0,0.0,90,0.00,,,0.00,WUHU216HW,2013-01-23 20:21:00,
2013-01-23 11:26:00,25.8,23.3,28.92,ENE,68,0.0,0.0,90,0.00,,,0.00,WUHU216HW,2013-01-23 20:26:00,
2013-01-23 11:31:00,26.2,23.7,28.92,ENE,68,0.0,0.0,90,0.00,,,0.00,WUHU216HW,2013-01-23 20:31:00,
2013-01-23 11:36:00,26.4,23.9,28.92,ENE,68,0.0,0.0,90,0.00,,,0.00,WUHU216HW,2013-01-23 20:36:00,
2013-01-23 11:41:00,26.7,24.2,28.92,ENE,68,0.0,0.0,90,0.00,,,0.00,WUHU216HW,2013-01-23 20:41:00,
2013-01-23 11:46:00,26.7,24.2,28.91,ENE,68,0.0,0.0,90,0.00,,,0.00,WUHU216HW,2013-01-23 20:46:00,
2013-01-23 11:51:00,27.3,24.8,28.91,ENE,68,0.0,0.0,90,0.00,,,0.00,WUHU216HW,2013-01-23 20:51:00,
2013-01-23 11:56:00,27.5,24.9,28.91,ENE,68,0.0,0.0,90,0.00,,,0.00,WUHU216HW,2013-01-23 20:56:00,
2013-01-23 12:01:00,28.2,25.9,28.91,ENE,68,0.0,0.0,91,0.00,,,0.00,WUHU216HW,2013-01-23 21:01:00,
2013-01-23 12:06:00,29.1,26.8,28.91,ENE,68,0.0,0.0,91,0.00,,,0.00,WUHU216HW,2013-01-23 21:06:00,
2013-01-23 12:11:00,30.3,28.1,28.91,ENE,68,0.0,0.0,91,0.00,,,0.00,WUHU216HW,2013-01-23 21:11:00,
2013-01-23 12:16:00,31.2,28.8,28.91,SSW,203,0.0,0.0,91,0.00,,,0.00,WUHU216HW,2013-01-23 21:16:00,
2013-01-23 12:21:00,32.1,29.8,28.90,NE,45,0.0,0.0,91,0.00,,,0.00,WUHU216HW,2013-01-23 21:21:00,
2013-01-23 12:26:00,32.0,29.4,28.90,NE,45,0.0,0.0,90,0.00,,,0.00,WUHU216HW,2013-01-23 21:26:00,
2013-01-23 12:31:00,31.8,28.7,28.90,ENE,68,0.0,0.0,88,0.00,,,0.00,WUHU216HW,2013-01-23 21:31:00,
2013-01-23 12:36:00,31.6,28.5,28.90,ENE,68,0.0,0.0,88,0.00,,,0.00,WUHU216HW,2013-01-23 21:36:00,
2013-01-23 12:41:00,31.6,28.5,28.90,NE,45,0.0,0.0,88,0.00,,,0.00,WUHU216HW,2013-01-23 21:41:00,
2013-01-23 12:46:00,31.8,28.7,28.90,NE,45,0.0,0.0,88,0.00,,,0.00,WUHU216HW,2013-01-23 21:46:00,
2013-01-23 12:51:00,32.1,29.0,28.90,NNE,23,0.0,0.0,88,0.00,,,0.00,WUHU216HW,2013-01-23 21:51:00,
2013-01-23 12:56:00,32.5,29.1,28.90,NNE,23,0.0,0.0,87,0.00,,,0.00,WUHU216HW,2013-01-23 21:56:00,
2013-01-23 13:01:00,35.7,32.7,28.90,NNE,23,0.0,0.0,89,0.00,,,0.00,WUHU216HW,2013-01-23 22:01:00,
2013-01-23 13:06:00,38.8,35.8,28.90,NNE,23,0.0,0.0,89,0.00,,,0.00,WUHU216HW,2013-01-23 22:06:00,
2013-01-23 13:12:00,40.2,36.0,28.90,ENE,68,0.0,0.0,85,0.00,,,0.00,WUHU216HW,2013-01-23 22:12:00,
2013-01-23 13:17:00,39.0,33.7,28.89,NE,45,1.3,1.3,81,0.00,,,0.00,WUHU216HW,2013-01-23 22:17:00,
2013-01-23 13:21:00,38.1,32.5,28.89,NNE,23,0.0,6.9,80,0.00,,,0.00,WUHU216HW,2013-01-23 22:21:00,
2013-01-23 13:27:00,37.7,32.1,28.89,NNE,23,0.0,6.9,80,0.00,,,0.00,WUHU216HW,2013-01-23 22:27:00,
2013-01-23 13:32:00,37.2,31.6,28.89,NE,45,0.0,0.0,80,0.00,,,0.00,WUHU216HW,2013-01-23 22:32:00,
2013-01-23 13:37:00,36.5,30.9,28.88,NNE,23,0.0,1.1,80,0.00,,,0.00,WUHU216HW,2013-01-23 22:37:00,
2013-01-23 13:42:00,35.7,30.2,28.89,NE,45,0.0,1.1,80,0.00,,,0.00,WUHU216HW,2013-01-23 22:42:00,
2013-01-23 13:47:00,35.0,29.4,28.89,NE,45,0.0,1.5,80,0.00,,,0.00,WUHU216HW,2013-01-23 22:47:00,
2013-01-23 13:52:00,34.5,29.2,28.88,NE,45,0.0,1.5,81,0.00,,,0.00,WUHU216HW,2013-01-23 22:52:00,
2013-01-23 13:57:00,34.3,29.0,28.88,NNE,23,0.0,1.5,81,0.00,,,0.00,WUHU216HW,2013-01-23 22:57:00,
2013-01-23 14:02:00,33.8,28.7,28.88,NNE,23,0.0,1.7,82,0.00,,,0.00,WUHU216HW,2013-01-23 23:02:00,
2013-01-23 14:07:00,33.6,28.6,28.88,NNE,23,0.8,1.7,82,0.00,,,0.00,WUHU216HW,2013-01-23 23:07:00,
2013-01-23 14:12:00,33.2,28.3,28.88,NE,45,0.0,0.8,82,0.00,,,0.00,WUHU216HW,2013-01-23 23:12:00,
2013-01-23 14:17:00,32.9,28.2,28.88,NNE,23,0.0,0.0,83,0.00,,,0.00,WUHU216HW,2013-01-23 23:17:00,
2013-01-23 14:22:00,32.7,28.1,28.88,NNE,23,3.3,3.3,83,0.00,,,0.00,WUHU216HW,2013-01-23 23:22:00,
2013-01-23 14:27:00,32.5,27.9,28.88,NNE,23,0.8,3.3,83,0.00,,,0.00,WUHU216HW,2013-01-23 23:27:00,
2013-01-23 14:32:00,32.1,27.9,28.88,NNE,23,0.0,0.8,84,0.00,,,0.00,WUHU216HW,2013-01-23 23:32:00,
2013-01-23 14:37:00,32.1,27.9,28.88,NNE,23,0.0,0.8,84,0.00,,,0.00,WUHU216HW,2013-01-23 23:37:00,
2013-01-23 14:42:00,31.8,27.5,28.88,NNE,23,0.0,0.0,84,0.00,,,0.00,WUHU216HW,2013-01-23 23:42:00,
2013-01-23 14:47:00,31.8,27.5,28.88,NNE,23,0.0,0.0,84,0.00,,,0.00,WUHU216HW,2013-01-23 23:47:00,
2013-01-23 14:52:00,31.6,27.3,28.88,NNE,23,0.0,0.0,84,0.00,,,0.00,WUHU216HW,2013-01-23 23:52:00,
2013-01-23 14:57:00,31.8,27.8,28.88,NNE,23,0.0,0.0,85,0.00,,,0.00,WUHU216HW,2013-01-23 23:57:00,
2013-01-23 15:02:00,32.0,28.0,28.88,NNE,23,0.0,0.0,85,0.00,,,0.00,WUHU216HW,2013-01-24 00:02:00,
2013-01-23 15:07:00,32.1,28.2,28.88,NNE,23,0.0,0.0,85,0.00,,,0.00,WUHU216HW,2013-01-24 00:07:00,
2013-01-23 15:12:00,32.1,28.2,28.88,NNE,23,0.0,0.0,85,0.00,,,0.00,WUHU216HW,2013-01-24 00:12:00,
2013-01-23 15:17:00,31.8,27.8,28.88,NNE,23,0.0,0.0,85,0.00,,,0.00,WUHU216HW,2013-01-24 00:17:00,
2013-01-23 15:22:00,31.8,27.8,28.88,NNE,23,0.0,0.0,85,0.00,,,0.00,WUHU216HW,2013-01-24 00:22:00,
2013-01-23 15:27:00,31.8,27.8,28.88,NNE,23,0.0,0.0,85,0.00,,,0.00,WUHU216HW,2013-01-24 00:27:00,
2013-01-23 15:32:00,31.4,27.5,28.89,NNE,23,0.0,0.0,85,0.00,,,0.00,WUHU216HW,2013-01-24 00:32:00,
2013-01-23 15:37:00,31.2,27.6,28.88,NNE,23,0.0,0.0,86,0.00,,,0.00,WUHU216HW,2013-01-24 00:37:00,
2013-01-23 15:42:00,31.2,27.6,28.88,NNE,23,0.0,0.0,86,0.00,,,0.00,WUHU216HW,2013-01-24 00:42:00,
2013-01-23 15:47:00,31.2,27.6,28.88,NNE,23,0.0,0.0,86,0.00,,,0.00,WUHU216HW,2013-01-24 00:47:00,
2013-01-23 15:52:00,31.4,27.7,28.88,NNE,23,0.0,0.0,86,0.00,,,0.00,WUHU216HW,2013-01-24 00:52:00,
2013-01-23 15:57:00,31.2,27.6,28.88,NNE,23,0.0,0.0,86,0.00,,,0.00,WUHU216HW,2013-01-24 00:57:00,
2013-01-23 16:02:00,31.2,27.6,28.88,NE,45,0.0,0.0,86,0.00,,,0.00,WUHU216HW,2013-01-24 01:02:00,
2013-01-23 16:07:00,31.2,27.6,28.88,NNE,23,0.0,0.0,86,0.00,,,0.00,WUHU216HW,2013-01-24 01:07:00,
2013-01-23 16:12:00,31.2,27.6,28.88,NE,45,0.0,0.0,86,0.00,,,0.00,WUHU216HW,2013-01-24 01:12:00,
2013-01-23 16:17:00,31.2,27.6,28.88,NE,45,0.0,0.0,86,0.00,,,0.00,WUHU216HW,2013-01-24 01:17:00,
2013-01-23 16:22:00,31.2,27.6,28.88,NNE,23,0.0,0.0,86,0.00,,,0.00,WUHU216HW,2013-01-24 01:22:00,
2013-01-23 16:27:00,31.1,27.4,28.88,NNE,23,0.0,0.0,86,0.00,,,0.00,WUHU216HW,2013-01-24 01:27:00,
2013-01-23 16:32:00,30.7,27.0,28.88,NNE,23,0.0,0.0,86,0.00,,,0.00,WUHU216HW,2013-01-24 01:32:00,
2013-01-23 16:37:00,30.5,26.8,28.88,NNE,23,1.3,4.4,86,0.00,,,0.00,WUHU216HW,2013-01-24 01:37:00,
2013-01-23 16:42:00,30.5,27.1,28.88,NNE,23,0.8,4.4,87,0.00,,,0.00,WUHU216HW,2013-01-24 01:42:00,
2013-01-23 16:47:00,30.0,26.6,28.88,NNE,23,0.8,0.8,87,0.00,,,0.00,WUHU216HW,2013-01-24 01:47:00,
2013-01-23 16:52:00,30.0,26.6,28.88,NNE,23,2.0,2.0,87,0.00,,,0.00,WUHU216HW,2013-01-24 01:52:00,
2013-01-23 16:57:00,30.0,26.6,28.89,NNE,23,0.0,7.6,87,0.00,,,0.00,WUHU216HW,2013-01-24 01:57:00,
2013-01-23 17:02:00,30.3,27.2,28.89,North,0,1.5,7.6,88,0.00,,,0.00,WUHU216HW,2013-01-24 02:02:00,
2013-01-23 17:07:00,30.2,27.1,28.89,NNE,23,0.0,4.2,88,0.00,,,0.00,WUHU216HW,2013-01-24 02:07:00,
2013-01-23 17:12:00,30.2,27.1,28.89,North,0,0.0,4.2,88,0.00,,,0.00,WUHU216HW,2013-01-24 02:12:00,
2013-01-23 17:17:00,30.0,26.9,28.89,North,0,1.7,1.7,88,0.00,,,0.00,WUHU216HW,2013-01-24 02:17:00,
2013-01-23 17:22:00,30.0,26.9,28.89,NNE,23,0.0,1.7,88,0.00,,,0.00,WUHU216HW,2013-01-24 02:22:00,
2013-01-23 17:27:00,30.0,26.9,28.90,NNE,23,0.0,1.7,88,0.00,,,0.00,WUHU216HW,2013-01-24 02:27:00,
2013-01-23 17:32:00,29.8,26.7,28.90,NNE,23,0.0,0.0,88,0.00,,,0.00,WUHU216HW,2013-01-24 02:32:00,
2013-01-23 17:37:00,29.8,26.7,28.90,NNE,23,0.0,0.0,88,0.00,,,0.00,WUHU216HW,2013-01-24 02:37:00,
2013-01-23 17:42:00,29.6,26.2,28.90,NNE,23,0.0,0.0,87,0.00,,,0.00,WUHU216HW,2013-01-24 02:42:00,
2013-01-23 17:47:00,29.6,26.2,28.90,NNE,23,0.0,0.0,87,0.00,,,0.00,WUHU216HW,2013-01-24 02:47:00,
2013-01-23 17:52:00,29.6,26.2,28.90,NE,45,0.6,0.6,87,0.00,,,0.00,WUHU216HW,2013-01-24 02:52:00,
2013-01-23 17:57:00,29.4,26.0,28.90,NNE,23,3.3,3.3,87,0.00,,,0.00,WUHU216HW,2013-01-24 02:57:00,
2013-01-23 18:02:00,29.3,26.2,28.90,North,0,1.3,3.3,88,0.00,,,0.00,WUHU216HW,2013-01-24 03:02:00,
2013-01-23 18:07:00,29.3,26.2,28.90,North,0,0.0,1.3,88,0.00,,,0.00,WUHU216HW,2013-01-24 03:07:00,
2013-01-23 18:12:00,29.1,26.0,28.90,NNE,23,0.0,1.3,88,0.00,,,0.00,WUHU216HW,2013-01-24 03:12:00,
2013-01-23 18:17:00,28.7,25.6,28.90,NNE,23,0.0,0.0,88,0.00,,,0.00,WUHU216HW,2013-01-24 03:17:00,
2013-01-23 18:22:00,28.5,25.4,28.91,NNE,23,0.0,0.0,88,0.00,,,0.00,WUHU216HW,2013-01-24 03:22:00,
2013-01-23 18:27:00,28.2,25.1,28.90,NNE,23,0.0,0.6,88,0.00,,,0.00,WUHU216HW,2013-01-24 03:27:00,
2013-01-23 18:32:00,28.0,24.9,28.90,NNE,23,0.0,0.6,88,0.00,,,0.00,WUHU216HW,2013-01-24 03:32:00,
2013-01-23 18:37:00,27.6,24.5,28.91,NNE,23,0.0,0.0,88,0.00,,,0.00,WUHU216HW,2013-01-24 03:37:00,
2013-01-23 18:42:00,27.5,24.4,28.91,North,0,0.0,0.0,88,0.00,,,0.00,WUHU216HW,2013-01-24 03:42:00,
2013-01-23 18:47:00,27.1,24.0,28.91,NNE,23,0.0,0.0,88,0.00,,,0.00,WUHU216HW,2013-01-24 03:47:00,
2013-01-23 18:52:00,27.1,24.0,28.91,NNE,23,0.0,0.0,88,0.00,,,0.00,WUHU216HW,2013-01-24 03:52:00,
2013-01-23 18:57:00,27.1,24.0,28.91,NNE,23,0.0,0.0,88,0.00,,,0.00,WUHU216HW,2013-01-24 03:57:00,
2013-01-23 19:02:00,27.1,24.0,28.91,NNE,23,0.0,0.0,88,0.00,,,0.00,WUHU216HW,2013-01-24 04:02:00,
2013-01-23 19:07:00,27.1,24.0,28.91,NNE,23,0.0,1.7,88,0.00,,,0.00,WUHU216HW,2013-01-24 04:07:00,
2013-01-23 19:12:00,27.1,24.0,28.91,NNE,23,0.0,1.7,88,0.00,,,0.00,WUHU216HW,2013-01-24 04:12:00,
2013-01-23 19:17:00,27.1,24.0,28.91,NNE,23,0.0,0.0,88,0.00,,,0.00,WUHU216HW,2013-01-24 04:17:00,
2013-01-23 19:22:00,27.1,24.3,28.91,NNE,23,0.0,1.1,88,0.00,,,0.00,WUHU216HW,2013-01-24 04:22:00,
2013-01-23 19:27:00,27.1,24.3,28.91,NNE,23,0.0,2.4,89,0.00,,,0.00,WUHU216HW,2013-01-24 04:27:00,
2013-01-23 19:32:00,27.1,24.3,28.91,NE,45,1.1,3.3,89,0.00,,,0.00,WUHU216HW,2013-01-24 04:32:00,
2013-01-23 19:37:00,27.1,24.3,28.91,NE,45,1.7,5.3,89,0.00,,,0.00,WUHU216HW,2013-01-24 04:37:00,
2013-01-23 19:42:00,27.3,24.5,28.92,NNE,23,0.8,5.3,89,0.00,,,0.00,WUHU216HW,2013-01-24 04:42:00,
2013-01-23 19:47:00,27.3,24.5,28.91,NE,45,3.3,3.3,89,0.00,,,0.00,WUHU216HW,2013-01-24 04:47:00,
2013-01-23 19:52:00,27.1,24.3,28.91,NE,45,0.0,3.3,89,0.00,,,0.00,WUHU216HW,2013-01-24 04:52:00,
2013-01-23 19:57:00,27.1,24.3,28.92,NE,45,0.0,0.0,89,0.00,,,0.00,WUHU216HW,2013-01-24 04:57:00,
2013-01-23 20:00:00,26.9,24.1,28.92,NE,45,0.0,0.0,89,0.00,,,0.00,WUHU216HW,2013-01-24 05:00:00,
2013-01-23 20:01:00,26.9,24.1,28.92,NE,45,0.0,0.0,89,0.00,,,0.00,WUHU216HW,2013-01-24 05:01:00,
2013-01-23 20:02:00,26.7,23.9,28.92,NE,45,0.0,0.0,89,0.00,,,0.00,WUHU216HW,2013-01-24 05:02:00,
2013-01-23 20:07:00,26.6,23.7,28.92,NE,45,0.0,0.0,89,0.00,,,0.00,WUHU216HW,2013-01-24 05:07:00,
2013-01-23 20:12:00,26.4,23.6,28.92,NE,45,0.0,0.0,89,0.00,,,0.00,WUHU216HW,2013-01-24 05:12:00,
2013-01-23 20:17:00,25.8,23.0,28.92,NE,45,0.0,0.0,89,0.00,,,0.00,WUHU216HW,2013-01-24 05:17:00,
2013-01-23 20:22:00,25.7,22.8,28.92,NE,45,0.0,0.0,89,0.00,,,0.00,WUHU216HW,2013-01-24 05:22:00,
2013-01-23 20:27:00,25.5,22.7,28.92,NE,45,0.0,0.0,89,0.00,,,0.00,WUHU216HW,2013-01-24 05:27:00,
2013-01-23 20:32:00,25.3,22.5,28.93,NE,45,0.0,0.0,89,0.00,,,0.00,WUHU216HW,2013-01-24 05:32:00,
2013-01-23 20:37:00,25.5,23.0,28.93,NE,45,0.0,0.0,90,0.00,,,0.00,WUHU216HW,2013-01-24 05:37:00,
2013-01-23 20:42:00,25.5,23.0,28.93,NNE,23,0.0,0.0,90,0.00,,,0.00,WUHU216HW,2013-01-24 05:42:00,
2013-01-23 20:47:00,25.8,23.3,28.93,NE,45,1.7,1.7,90,0.00,,,0.00,WUHU216HW,2013-01-24 05:47:00,
2013-01-23 20:52:00,26.0,23.5,28.93,NE,45,0.0,1.7,90,0.00,,,0.00,WUHU216HW,2013-01-24 05:52:00,
2013-01-23 20:57:00,26.4,23.9,28.93,NE,45,1.5,2.0,90,0.00,,,0.00,WUHU216HW,2013-01-24 05:57:00,
2013-01-23 21:02:00,26.4,23.9,28.93,NE,45,1.3,4.0,90,0.00,,,0.00,WUHU216HW,2013-01-24 06:02:00,
2013-01-23 21:07:00,26.4,23.9,28.93,NNE,23,0.0,4.0,90,0.00,,,0.00,WUHU216HW,2013-01-24 06:07:00,
2013-01-23 21:12:00,26.6,24.0,28.93,NE,45,0.0,1.3,90,0.00,,,0.00,WUHU216HW,2013-01-24 06:12:00,
2013-01-23 21:17:00,26.6,24.0,28.93,ENE,68,0.0,1.3,90,0.00,,,0.00,WUHU216HW,2013-01-24 06:17:00,
2013-01-23 21:22:00,26.6,24.0,28.93,ENE,68,0.0,0.0,90,0.00,,,0.00,WUHU216HW,2013-01-24 06:22:00,
2013-01-23 21:27:00,26.6,24.0,28.93,NE,45,2.2,2.2,90,0.00,,,0.00,WUHU216HW,2013-01-24 06:27:00,
2013-01-23 21:32:00,26.4,23.9,28.93,NE,45,0.0,2.2,90,0.00,,,0.00,WUHU216HW,2013-01-24 06:32:00,
2013-01-23 21:37:00,26.2,23.7,28.93,NE,45,0.0,0.0,90,0.00,,,0.00,WUHU216HW,2013-01-24 06:37:00,
2013-01-23 21:42:00,26.0,23.5,28.94,NE,45,0.0,0.0,90,0.00,,,0.00,WUHU216HW,2013-01-24 06:42:00,
2013-01-23 21:47:00,25.5,23.0,28.94,NE,45,0.0,0.0,90,0.00,,,0.00,WUHU216HW,2013-01-24 06:47:00,
2013-01-23 21:52:00,25.3,22.8,28.94,NE,45,0.0,0.0,90,0.00,,,0.00,WUHU216HW,2013-01-24 06:52:00,
2013-01-23 21:57:00,25.1,22.6,28.94,NE,45,0.0,0.0,90,0.00,,,0.00,WUHU216HW,2013-01-24 06:57:00,
2013-01-23 22:02:00,24.6,22.1,28.94,NE,45,0.0,0.0,90,0.00,,,0.00,WUHU216HW,2013-01-24 07:02:00,
2013-01-23 22:07:00,24.6,22.1,28.94,NE,45,0.0,0.0,90,0.00,,,0.00,WUHU216HW,2013-01-24 07:07:00,
2013-01-23 22:12:00,24.6,22.1,28.94,NE,45,0.0,0.0,90,0.00,,,0.00,WUHU216HW,2013-01-24 07:12:00,
2013-01-23 22:17:00,24.2,21.7,28.94,NE,45,0.0,0.0,90,0.00,,,0.00,WUHU216HW,2013-01-24 07:17:00,
2013-01-23 22:22:00,24.0,21.5,28.95,NE,45,0.0,0.0,90,0.00,,,0.00,WUHU216HW,2013-01-24 07:22:00,
2013-01-23 22:27:00,23.7,21.2,28.95,NE,45,0.0,0.0,90,0.00,,,0.00,WUHU216HW,2013-01-24 07:27:00,
2013-01-23 22:32:00,23.3,20.8,28.95,NE,45,0.0,0.0,90,0.00,,,0.00,WUHU216HW,2013-01-24 07:32:00,
2013-01-23 22:37:00,23.3,20.8,28.95,NE,45,0.0,0.0,90,0.00,,,0.00,WUHU216HW,2013-01-24 07:37:00,
2013-01-23 22:42:00,23.3,20.8,28.94,NE,45,0.0,0.0,90,0.00,,,0.00,WUHU216HW,2013-01-24 07:42:00,
2013-01-23 22:47:00,23.1,20.6,28.94,NNE,23,0.0,1.1,90,0.00,,,0.00,WUHU216HW,2013-01-24 07:47:00,
2013-01-23 22:52:00,23.1,20.6,28.94,NNE,23,0.0,1.1,90,0.00,,,0.00,WUHU216HW,2013-01-24 07:52:00,
2013-01-23 22:57:00,23.1,20.6,28.94,NNE,23,0.0,0.0,90,0.00,,,0.00,WUHU216HW,2013-01-24 07:57:00,
2013-01-23 23:02:00,23.1,20.6,28.95,NE,45,0.0,0.0,90,0.00,,,0.00,WUHU216HW,2013-01-24 08:02:00,
2013-01-23 23:07:00,23.1,20.6,28.95,NE,45,0.0,0.0,90,0.00,,,0.00,WUHU216HW,2013-01-24 08:07:00,
2013-01-23 23:12:00,23.1,20.6,28.94,NE,45,0.0,1.3,90,0.00,,,0.00,WUHU216HW,2013-01-24 08:12:00,
2013-01-23 23:17:00,23.3,20.8,28.94,NE,45,0.0,1.3,90,0.00,,,0.00,WUHU216HW,2013-01-24 08:17:00,
2013-01-23 23:22:00,23.5,21.0,28.94,NE,45,0.0,0.0,90,0.00,,,0.00,WUHU216HW,2013-01-24 08:22:00,
2013-01-23 23:27:00,23.5,21.0,28.95,NE,45,0.0,0.0,90,0.00,,,0.00,WUHU216HW,2013-01-24 08:27:00,
2013-01-23 23:32:00,23.5,21.0,28.95,NE,45,0.0,0.0,90,0.00,,,0.00,WUHU216HW,2013-01-24 08:32:00,
2013-01-23 23:37:00,23.3,20.8,28.95,NE,45,0.0,0.0,90,0.00,,,0.00,WUHU216HW,2013-01-24 08:37:00,
2013-01-23 23:42:00,23.1,20.6,28.95,NNE,23,0.0,0.0,90,0.00,,,0.00,WUHU216HW,2013-01-24 08:42:00,
2013-01-23 23:47:00,23.0,20.4,28.95,North,0,0.0,0.0,90,0.00,,,0.00,WUHU216HW,2013-01-24 08:47:00,
2013-01-23 23:52:00,23.1,20.6,28.95,NNE,23,1.3,1.3,90,0.00,,,0.00,WUHU216HW,2013-01-24 08:52:00,
2013-01-23 23:57:00,23.3,20.8,28.95,NE,45,2.4,2.4,90,0.00,,,0.00,WUHU216HW,2013-01-24 08:57:00,